createdAt,value
2018-07-11T00:01:38.153Z,20.17
2018-07-11T00:04:07.006Z,22.40
2018-07-11T00:06:36.498Z,21.93
2018-07-11T00:09:06.097Z,22.40
2018-07-11T00:11:34.985Z,22.32
2018-07-11T00:14:03.844Z,19.93
2018-07-11T00:16:34.194Z,21.00
2018-07-11T00:19:03.024Z,24.10
2018-07-11T00:21:31.867Z,21.00
2018-07-11T00:24:01.107Z,21.70
2018-07-11T00:26:29.946Z,20.50
2018-07-11T00:28:58.796Z,21.97
2018-07-11T00:31:28.312Z,22.17
2018-07-11T00:33:57.963Z,20.73
2018-07-11T00:36:26.950Z,20.13
2018-07-11T00:38:56.301Z,17.83
2018-07-11T00:41:25.419Z,17.90
2018-07-11T00:43:54.436Z,17.07
2018-07-11T00:46:34.496Z,16.53
2018-07-11T00:49:11.267Z,17.57
2018-07-11T00:51:48.199Z,18.13
2018-07-11T00:54:22.434Z,14.53
2018-07-11T00:57:00.316Z,17.53
2018-07-11T00:59:36.206Z,17.63
2018-07-11T01:19:26.147Z,14.33
2018-07-11T01:22:05.809Z,14.40
2018-07-11T01:24:40.582Z,14.20
2018-07-11T01:27:11.149Z,14.80
2018-07-11T01:29:41.587Z,13.90
2018-07-11T01:32:17.009Z,15.67
2018-07-11T01:34:46.403Z,16.17
2018-07-11T01:37:15.435Z,16.20
2018-07-11T01:39:44.602Z,16.37
2018-07-11T01:42:13.566Z,14.97
2018-07-11T02:01:58.886Z,16.17
2018-07-11T02:21:44.269Z,13.40
2018-07-11T02:24:13.360Z,14.47
2018-07-11T02:26:42.451Z,13.90
2018-07-11T02:29:12.778Z,13.13
2018-07-11T02:31:42.051Z,17.83
2018-07-11T02:34:12.234Z,13.47
2018-07-11T02:36:42.337Z,13.47
2018-07-11T02:39:13.473Z,13.50
2018-07-11T02:41:42.741Z,12.33
2018-07-11T02:44:12.153Z,13.20
2018-07-11T02:46:46.897Z,14.03
2018-07-11T02:49:16.143Z,11.73
2018-07-11T02:51:45.134Z,12.00
2018-07-11T02:54:19.245Z,13.40
2018-07-11T02:56:48.162Z,13.37
2018-07-11T02:59:17.110Z,13.97
2018-07-11T03:01:48.401Z,16.07
2018-07-11T03:04:18.270Z,13.57
2018-07-11T03:06:48.045Z,15.33
2018-07-11T03:09:17.179Z,13.87
2018-07-11T03:11:46.239Z,12.10
2018-07-11T03:14:15.277Z,13.87
2018-07-11T03:16:44.741Z,13.10
2018-07-11T03:36:30.211Z,14.73
2018-07-11T03:39:00.143Z,14.70
2018-07-11T03:41:30.090Z,13.37
2018-07-11T03:43:59.201Z,13.30
2018-07-11T03:46:29.774Z,12.23
2018-07-11T03:48:58.573Z,14.40
2018-07-11T04:08:43.685Z,19.50
2018-07-11T04:11:14.968Z,27.47
2018-07-11T04:13:44.407Z,32.57
2018-07-11T04:16:14.470Z,30.00
2018-07-11T04:18:43.524Z,28.10
2018-07-11T04:21:12.866Z,29.40
2018-07-11T04:23:41.639Z,26.90
2018-07-11T04:26:10.940Z,27.60
2018-07-11T04:28:40.502Z,23.23
2018-07-11T04:31:10.048Z,28.50
2018-07-11T04:50:56.185Z,44.77
2018-07-11T04:53:26.629Z,42.50
2018-07-11T05:13:12.277Z,20.50
2018-07-11T05:15:41.479Z,26.37
2018-07-11T05:18:10.552Z,19.03
2018-07-11T05:20:40.152Z,18.27
2018-07-11T05:23:09.026Z,22.10
2018-07-11T05:25:37.989Z,19.87
2018-07-11T05:28:07.090Z,20.47
2018-07-11T05:30:36.081Z,17.10
2018-07-11T05:33:05.187Z,17.27
2018-07-11T05:35:34.721Z,15.70
2018-07-11T05:38:03.879Z,16.17
2018-07-11T05:40:32.850Z,14.93
2018-07-11T05:43:01.754Z,15.90
2018-07-11T05:45:30.756Z,13.50
2018-07-11T06:05:17.039Z,14.97
2018-07-11T06:25:03.096Z,15.07
2018-07-11T06:44:48.727Z,13.77
2018-07-11T06:47:17.782Z,17.43
2018-07-11T07:07:03.973Z,14.53
2018-07-11T07:09:33.050Z,13.90
2018-07-11T07:12:02.010Z,16.47
2018-07-11T07:14:31.035Z,16.30
2018-07-11T07:16:59.890Z,16.13
2018-07-11T07:19:28.855Z,15.70
2018-07-11T07:39:13.655Z,14.20
2018-07-11T07:41:42.973Z,14.97
2018-07-11T07:44:13.065Z,16.27
2018-07-11T07:46:46.412Z,16.07
2018-07-11T07:49:15.478Z,15.85
2018-07-11T07:51:44.373Z,14.97
2018-07-11T07:54:13.790Z,16.43
2018-07-11T07:56:42.780Z,14.80
2018-07-11T07:59:11.767Z,14.10
2018-07-11T09:00:03.197Z,11.90
2018-07-11T09:03:56.787Z,11.37
2018-07-11T09:08:39.525Z,11.50
2018-07-11T09:12:34.420Z,11.07
2018-07-11T09:15:12.497Z,11.30
2018-07-11T09:17:58.370Z,11.07
2018-07-11T09:21:37.316Z,10.30
2018-07-11T09:24:17.644Z,10.50
2018-07-11T09:26:46.590Z,11.10
2018-07-11T09:29:15.547Z,11.00
2018-07-11T09:31:44.834Z,12.15
2018-07-11T09:34:13.615Z,11.17
2018-07-11T09:36:42.673Z,10.67
2018-07-11T09:39:11.977Z,10.33
2018-07-11T09:41:41.154Z,11.37
2018-07-11T09:44:17.073Z,11.20
2018-07-11T09:46:46.400Z,11.03
2018-07-11T09:49:15.488Z,10.30
2018-07-11T09:51:44.629Z,10.87
2018-07-11T10:11:30.114Z,9.83
2018-07-11T10:31:15.980Z,9.13
2018-07-11T10:33:44.932Z,9.73
2018-07-11T10:36:13.810Z,9.90
2018-07-11T10:38:42.856Z,9.50
2018-07-11T10:41:12.146Z,9.07
2018-07-11T10:43:41.579Z,9.50
2018-07-11T11:03:29.364Z,8.60
2018-07-11T11:05:58.519Z,8.47
2018-07-11T11:08:28.542Z,7.73
2018-07-11T11:10:57.803Z,8.17
2018-07-11T11:13:27.207Z,8.37
2018-07-11T11:15:56.790Z,8.80
2018-07-11T11:18:26.154Z,7.90
2018-07-11T11:38:11.570Z,8.03
2018-07-11T11:57:57.185Z,7.83
2018-07-11T12:00:26.141Z,7.07
2018-07-11T12:02:55.379Z,7.50
2018-07-11T12:05:24.566Z,6.77
2018-07-11T12:07:53.622Z,8.43
2018-07-11T12:10:22.836Z,7.27
2018-07-11T12:12:51.886Z,7.50
2018-07-11T12:15:20.901Z,7.43
2018-07-11T12:17:49.649Z,7.10
2018-07-11T12:20:18.950Z,7.07
2018-07-11T12:22:48.563Z,7.03
2018-07-11T12:25:17.767Z,7.00
2018-07-11T12:27:47.198Z,7.40
2018-07-11T12:47:37.391Z,7.13
2018-07-11T12:50:06.690Z,6.97
2018-07-11T12:52:35.523Z,6.67
2018-07-11T12:55:04.617Z,6.60
2018-07-11T12:57:33.823Z,6.87
2018-07-11T13:00:02.969Z,7.10
2018-07-11T13:02:32.477Z,6.73
2018-07-11T13:22:18.381Z,6.57
2018-07-11T13:24:47.427Z,5.67
2018-07-11T13:44:32.560Z,6.10
2018-07-11T13:47:05.814Z,5.40
2018-07-11T13:49:34.865Z,6.17
2018-07-11T13:52:04.143Z,6.00
2018-07-11T13:54:33.157Z,6.07
2018-07-11T13:57:02.375Z,5.50
2018-07-11T13:59:31.459Z,5.50
2018-07-11T14:02:00.679Z,5.97
2018-07-11T14:04:29.874Z,5.30
2018-07-11T14:06:58.913Z,5.27
2018-07-11T14:09:28.098Z,5.40
